Time;durP1;ratioP1;P1;durP2;ratioP2;P2;SDS_P1;SDS_P2;PMS_P1;PMS_P2;Temp;Humidity;BMP_temperature;BMP_pressure;BME280_temperature;BME280_humidity;BME280_pressure;Samples;Min_cycle;Max_cycle;Signal;HPM_P1;HPM_P2
2023/10/25 00:00:03;;;;;;;4.57;1.65;;;;;;;;;;5012725;28;20048;-85
2023/10/25 00:02:28;;;;;;;4.45;2.13;;;;;;;;;;5013377;28;20022;-85
2023/10/25 00:04:54;;;;;;;3.03;1.77;;;;;;;;;;5013981;28;20052;-85
2023/10/25 00:07:19;;;;;;;6.28;2.42;;;;;;;;;;5012942;28;20332;-85
2023/10/25 00:09:44;;;;;;;4.25;2.80;;;;;;;;;;5012560;28;20025;-86
2023/10/25 00:12:10;;;;;;;7.55;3.35;;;;;;;;;;5010749;28;20060;-85
2023/10/25 00:14:35;;;;;;;6.63;3.23;;;;;;;;;;5016360;28;20018;-85
2023/10/25 00:17:00;;;;;;;6.40;3.30;;;;;;;;;;5019449;28;20267;-85
2023/10/25 00:19:26;;;;;;;7.13;3.60;;;;;;;;;;5012098;28;20025;-85
2023/10/25 00:21:51;;;;;;;6.37;3.67;;;;;;;;;;5012941;28;20279;-85
2023/10/25 00:24:16;;;;;;;4.70;3.60;;;;;;;;;;5011335;28;20252;-86
2023/10/25 00:26:41;;;;;;;5.43;3.77;;;;;;;;;;5012834;28;20267;-86
2023/10/25 00:29:06;;;;;;;7.13;4.27;;;;;;;;;;5011571;28;20720;-86
2023/10/25 00:31:31;;;;;;;7.60;3.67;;;;;;;;;;5015773;28;20255;-85
2023/10/25 00:33:57;;;;;;;7.60;4.13;;;;;;;;;;5010127;28;20325;-85
2023/10/25 00:36:22;;;;;;;6.88;3.72;;;;;;;;;;5012560;28;20299;-85
2023/10/25 00:38:47;;;;;;;5.80;3.78;;;;;;;;;;5011938;28;20447;-85
2023/10/25 00:41:12;;;;;;;6.40;3.60;;;;;;;;;;5011222;28;20014;-86
2023/10/25 00:43:38;;;;;;;9.80;3.70;;;;;;;;;;5012435;28;20314;-86
2023/10/25 00:46:13;;;;;;;8.50;3.90;;;;;;;;;;5029028;28;20021;-85
2023/10/25 00:48:40;;;;;;;5.75;3.78;;;;;;;;;;5018134;28;20033;-85
2023/10/25 00:51:06;;;;;;;5.85;3.47;;;;;;;;;;5027485;28;20292;-86
2023/10/25 00:53:31;;;;;;;5.72;3.70;;;;;;;;;;5010859;28;20735;-85
2023/10/25 00:55:57;;;;;;;7.40;3.40;;;;;;;;;;5012633;28;20034;-85
2023/10/25 00:58:23;;;;;;;8.52;3.25;;;;;;;;;;5011244;28;20030;-85
2023/10/25 01:00:49;;;;;;;7.05;3.58;;;;;;;;;;5011271;28;20391;-85
2023/10/25 01:03:15;;;;;;;5.15;3.10;;;;;;;;;;5011120;28;20028;-85
2023/10/25 01:05:41;;;;;;;5.70;3.15;;;;;;;;;;5012572;28;20105;-85
2023/10/25 01:08:06;;;;;;;6.88;3.42;;;;;;;;;;5008823;28;20504;-86
2023/10/25 01:10:31;;;;;;;5.10;3.35;;;;;;;;;;5011180;28;20022;-86
2023/10/25 01:12:56;;;;;;;7.80;3.70;;;;;;;;;;5012405;28;20496;-86
2023/10/25 01:15:25;;;;;;;4.97;2.77;;;;;;;;;;4996907;28;20844;-85
2023/10/25 01:17:50;;;;;;;6.22;2.80;;;;;;;;;;5031141;28;20278;-86
2023/10/25 01:20:15;;;;;;;6.72;2.40;;;;;;;;;;5016949;28;20037;-86
2023/10/25 01:22:40;;;;;;;5.95;2.20;;;;;;;;;;5012016;28;20021;-86
2023/10/25 01:25:06;;;;;;;7.78;2.58;;;;;;;;;;5012445;28;20022;-86
2023/10/25 01:27:31;;;;;;;8.70;2.45;;;;;;;;;;5010829;28;20480;-86
2023/10/25 01:29:56;;;;;;;4.67;2.03;;;;;;;;;;5009923;28;20037;-86
2023/10/25 01:32:22;;;;;;;5.07;1.97;;;;;;;;;;5010525;28;20271;-86
2023/10/25 01:34:47;;;;;;;9.48;2.30;;;;;;;;;;5010636;28;20293;-86
2023/10/25 01:37:13;;;;;;;9.53;2.03;;;;;;;;;;5010105;28;20021;-85
2023/10/25 01:39:38;;;;;;;5.55;2.25;;;;;;;;;;5010314;28;20278;-85
2023/10/25 01:42:03;;;;;;;5.40;2.20;;;;;;;;;;5011847;28;20101;-85
2023/10/25 01:44:28;;;;;;;11.90;1.73;;;;;;;;;;5012254;28;20522;-85
2023/10/25 01:46:54;;;;;;;9.23;2.25;;;;;;;;;;5019293;28;20021;-85
2023/10/25 01:49:19;;;;;;;4.83;2.23;;;;;;;;;;5009945;28;20072;-86
2023/10/25 01:51:44;;;;;;;6.30;1.87;;;;;;;;;;5009348;28;20346;-85
2023/10/25 01:54:09;;;;;;;3.07;1.80;;;;;;;;;;5011305;28;20271;-85
2023/10/25 01:56:34;;;;;;;7.33;2.37;;;;;;;;;;5010701;28;20263;-85
2023/10/25 01:59:00;;;;;;;5.68;1.98;;;;;;;;;;5010815;28;20251;-85
2023/10/25 02:01:25;;;;;;;6.43;1.97;;;;;;;;;;5010715;28;20030;-85
2023/10/25 02:03:50;;;;;;;3.90;2.42;;;;;;;;;;5011593;28;20259;-85
2023/10/25 02:06:15;;;;;;;4.53;2.45;;;;;;;;;;5010080;28;20506;-85
2023/10/25 02:08:41;;;;;;;7.23;2.07;;;;;;;;;;5011060;28;20030;-85
2023/10/25 02:11:06;;;;;;;6.85;2.70;;;;;;;;;;5009673;28;20267;-85
2023/10/25 02:13:32;;;;;;;7.28;2.78;;;;;;;;;;5011879;28;20583;-85
2023/10/25 02:15:57;;;;;;;9.00;3.33;;;;;;;;;;5010924;28;20041;-85
2023/10/25 02:18:22;;;;;;;8.48;3.05;;;;;;;;;;5011647;28;20014;-85
2023/10/25 02:20:47;;;;;;;5.90;2.42;;;;;;;;;;5009463;28;20025;-85
2023/10/25 02:23:13;;;;;;;7.63;3.07;;;;;;;;;;5011642;28;20022;-85
2023/10/25 02:25:38;;;;;;;4.67;2.80;;;;;;;;;;5011319;28;20255;-85
2023/10/25 02:28:03;;;;;;;7.65;2.85;;;;;;;;;;5010460;28;20341;-85
2023/10/25 02:30:28;;;;;;;5.88;2.63;;;;;;;;;;5010867;28;20211;-85
2023/10/25 02:32:54;;;;;;;5.50;3.43;;;;;;;;;;5011251;28;20026;-85
2023/10/25 02:35:19;;;;;;;12.63;3.38;;;;;;;;;;5010712;28;20259;-85
2023/10/25 02:37:44;;;;;;;7.80;3.17;;;;;;;;;;5011361;28;20029;-85
2023/10/25 02:40:09;;;;;;;12.23;2.97;;;;;;;;;;5010286;28;20080;-85
2023/10/25 02:42:35;;;;;;;9.13;3.58;;;;;;;;;;5011311;28;20263;-85
2023/10/25 02:45:00;;;;;;;8.23;3.20;;;;;;;;;;5018961;28;20097;-85
2023/10/25 02:47:26;;;;;;;6.68;3.08;;;;;;;;;;5015007;28;20049;-85
2023/10/25 02:49:51;;;;;;;10.73;3.50;;;;;;;;;;5009044;28;20084;-85
2023/10/25 02:52:16;;;;;;;7.40;3.03;;;;;;;;;;5010157;28;20130;-86
2023/10/25 02:54:41;;;;;;;4.70;3.00;;;;;;;;;;5011147;28;20657;-86
2023/10/25 02:57:07;;;;;;;8.47;3.00;;;;;;;;;;5011246;28;20259;-86
2023/10/25 02:59:32;;;;;;;6.80;2.90;;;;;;;;;;5013799;28;20279;-85
2023/10/25 03:01:57;;;;;;;6.70;2.80;;;;;;;;;;5024924;28;20057;-85
2023/10/25 03:04:22;;;;;;;5.87;2.57;;;;;;;;;;5027148;28;20371;-85
2023/10/25 03:06:47;;;;;;;7.87;2.63;;;;;;;;;;5012505;28;20273;-85
2023/10/25 03:09:13;;;;;;;4.50;1.80;;;;;;;;;;5011075;28;20293;-85
2023/10/25 03:11:38;;;;;;;5.90;2.63;;;;;;;;;;5013423;28;20472;-85
2023/10/25 03:14:03;;;;;;;5.65;2.15;;;;;;;;;;5014699;28;20033;-85
2023/10/25 03:16:28;;;;;;;7.53;2.37;;;;;;;;;;5022817;28;20483;-85
2023/10/25 03:18:54;;;;;;;11.17;2.87;;;;;;;;;;5034162;28;20660;-85
2023/10/25 03:21:19;;;;;;;7.57;2.30;;;;;;;;;;5011290;28;20688;-85
2023/10/25 03:23:44;;;;;;;5.93;2.45;;;;;;;;;;5013870;28;20670;-85
2023/10/25 03:26:09;;;;;;;8.80;2.40;;;;;;;;;;5014474;28;20488;-85
2023/10/25 03:28:35;;;;;;;7.93;2.58;;;;;;;;;;5014432;28;20417;-85
2023/10/25 03:31:06;;;;;;;5.97;2.50;;;;;;;;;;5018125;28;20059;-85
2023/10/25 03:33:32;;;;;;;;;;;;;;;;;;5013745;28;20030;-85
2023/10/25 03:35:57;;;;;;;7.73;2.23;;;;;;;;;;5013737;28;19916;-85
2023/10/25 03:38:22;;;;;;;4.03;2.50;;;;;;;;;;5012880;28;20480;-85
2023/10/25 03:40:48;;;;;;;5.03;2.20;;;;;;;;;;5013772;28;20022;-85
2023/10/25 03:43:13;;;;;;;13.45;3.65;;;;;;;;;;5014010;28;20251;-85
2023/10/25 03:45:38;;;;;;;7.25;2.55;;;;;;;;;;5019394;28;20368;-85
2023/10/25 03:48:03;;;;;;;10.03;2.40;;;;;;;;;;5023199;28;20022;-85
2023/10/25 03:50:29;;;;;;;6.47;2.20;;;;;;;;;;5011632;28;20275;-85
2023/10/25 03:52:54;;;;;;;5.83;2.40;;;;;;;;;;5011594;28;20431;-85
2023/10/25 03:55:19;;;;;;;8.80;2.10;;;;;;;;;;5013714;28;20764;-85
2023/10/25 03:57:45;;;;;;;16.70;2.50;;;;;;;;;;5012737;28;20408;-85
2023/10/25 04:00:11;;;;;;;8.53;2.83;;;;;;;;;;5012426;28;20750;-85
2023/10/25 04:02:36;;;;;;;5.43;2.30;;;;;;;;;;5013070;28;20832;-85
2023/10/25 04:05:01;;;;;;;6.80;2.63;;;;;;;;;;5011559;28;20021;-85
2023/10/25 04:07:26;;;;;;;9.80;2.27;;;;;;;;;;5011681;28;20041;-86
2023/10/25 04:09:51;;;;;;;5.37;2.10;;;;;;;;;;5012138;28;20764;-85
2023/10/25 04:12:17;;;;;;;6.23;2.10;;;;;;;;;;5013006;28;20753;-85
2023/10/25 04:14:45;;;;;;;8.53;2.70;;;;;;;;;;5013457;28;20271;-85
2023/10/25 04:17:10;;;;;;;5.60;2.13;;;;;;;;;;5012078;28;20286;-85
2023/10/25 04:19:36;;;;;;;5.93;2.35;;;;;;;;;;5011171;28;20022;-85
2023/10/25 04:22:01;;;;;;;6.40;2.95;;;;;;;;;;5012380;28;20133;-85
2023/10/25 04:24:26;;;;;;;10.50;2.70;;;;;;;;;;5013147;28;20045;-85
2023/10/25 04:26:52;;;;;;;6.13;2.57;;;;;;;;;;5011989;28;20333;-86
2023/10/25 04:29:17;;;;;;;13.63;3.23;;;;;;;;;;5010906;28;20290;-85
2023/10/25 04:31:42;;;;;;;7.23;3.27;;;;;;;;;;5016513;28;20271;-86
2023/10/25 04:34:07;;;;;;;6.97;2.67;;;;;;;;;;5033153;28;20263;-86
2023/10/25 04:36:32;;;;;;;10.17;3.20;;;;;;;;;;5020493;28;20267;-85
2023/10/25 04:38:58;;;;;;;7.67;2.60;;;;;;;;;;5012917;28;20768;-85
2023/10/25 04:41:23;;;;;;;8.45;3.10;;;;;;;;;;5012598;28;20753;-85
2023/10/25 04:43:48;;;;;;;6.65;3.00;;;;;;;;;;5011623;28;20045;-86
2023/10/25 04:46:15;;;;;;;7.60;3.40;;;;;;;;;;5015400;28;20100;-86
2023/10/25 04:48:40;;;;;;;15.38;6.82;;;;;;;;;;5018762;28;20692;-86
2023/10/25 04:51:05;;;;;;;13.23;4.30;;;;;;;;;;5011532;28;20018;-85
2023/10/25 04:53:30;;;;;;;14.18;3.97;;;;;;;;;;5010426;28;20064;-86
2023/10/25 04:55:56;;;;;;;13.68;6.25;;;;;;;;;;5012951;28;20018;-85
2023/10/25 04:58:21;;;;;;;6.57;4.07;;;;;;;;;;5012614;28;20030;-86
2023/10/25 05:00:46;;;;;;;10.02;4.57;;;;;;;;;;5012338;28;20263;-85
2023/10/25 05:03:11;;;;;;;10.77;4.73;;;;;;;;;;5022765;28;20049;-86
2023/10/25 05:05:37;;;;;;;14.07;4.95;;;;;;;;;;5012705;28;20263;-86
2023/10/25 05:08:03;;;;;;;11.98;5.60;;;;;;;;;;5011004;28;20113;-85
2023/10/25 05:10:29;;;;;;;9.77;4.78;;;;;;;;;;5010315;28;20121;-86
2023/10/25 05:12:54;;;;;;;9.98;5.90;;;;;;;;;;5010098;28;20523;-86
2023/10/25 05:15:20;;;;;;;14.40;5.15;;;;;;;;;;5010482;28;20025;-85
2023/10/25 05:17:46;;;;;;;10.98;5.97;;;;;;;;;;5032278;28;20020;-85
2023/10/25 05:20:11;;;;;;;14.45;6.38;;;;;;;;;;5024263;28;20523;-85
2023/10/25 05:22:38;;;;;;;12.73;6.22;;;;;;;;;;5008722;28;20034;-85
2023/10/25 05:25:04;;;;;;;11.90;5.28;;;;;;;;;;5012202;28;20021;-85
2023/10/25 05:27:29;;;;;;;9.55;4.90;;;;;;;;;;5012370;28;20380;-86
2023/10/25 05:29:54;;;;;;;8.93;5.05;;;;;;;;;;5012032;28;20026;-85
2023/10/25 05:32:20;;;;;;;13.38;5.80;;;;;;;;;;5019435;28;20026;-85
2023/10/25 05:34:48;;;;;;;7.13;5.22;;;;;;;;;;5011805;28;20093;-85
2023/10/25 05:37:14;;;;;;;13.07;5.72;;;;;;;;;;5011291;28;20125;-85
2023/10/25 05:39:39;;;;;;;14.13;5.43;;;;;;;;;;5011699;28;20030;-85
2023/10/25 05:42:05;;;;;;;12.65;6.20;;;;;;;;;;5011501;28;20032;-86
2023/10/25 05:44:31;;;;;;;11.57;6.45;;;;;;;;;;5011922;28;20021;-86
2023/10/25 05:46:56;;;;;;;12.20;5.68;;;;;;;;;;5011379;28;20030;-86
2023/10/25 05:49:21;;;;;;;13.05;6.82;;;;;;;;;;5010846;28;20037;-85
2023/10/25 05:51:47;;;;;;;17.15;6.90;;;;;;;;;;5012029;28;20392;-86
2023/10/25 05:54:12;;;;;;;10.65;6.13;;;;;;;;;;5010913;28;20022;-86
2023/10/25 05:56:38;;;;;;;12.48;6.18;;;;;;;;;;5010629;28;20475;-86
2023/10/25 05:59:03;;;;;;;13.95;6.45;;;;;;;;;;5012103;28;20788;-86
2023/10/25 06:01:34;;;;;;;14.13;6.78;;;;;;;;;;5026544;28;20083;-86
2023/10/25 06:04:02;;;;;;;13.63;6.78;;;;;;;;;;5012817;28;20029;-86
2023/10/25 06:06:28;;;;;;;18.73;6.47;;;;;;;;;;5011206;28;20018;-86
2023/10/25 06:08:53;;;;;;;17.38;7.00;;;;;;;;;;5010253;28;20034;-86
2023/10/25 06:11:18;;;;;;;12.32;7.57;;;;;;;;;;5011963;28;20085;-86
2023/10/25 06:13:44;;;;;;;18.30;8.15;;;;;;;;;;5010691;28;20041;-85
2023/10/25 06:16:09;;;;;;;15.13;7.68;;;;;;;;;;5025800;28;20463;-85
2023/10/25 06:18:34;;;;;;;12.95;7.28;;;;;;;;;;5031628;28;20036;-86
2023/10/25 06:20:59;;;;;;;17.93;8.10;;;;;;;;;;5026508;28;20018;-86
2023/10/25 06:23:25;;;;;;;15.95;7.50;;;;;;;;;;5010077;28;20287;-86
2023/10/25 06:25:50;;;;;;;14.13;7.80;;;;;;;;;;5011671;28;20054;-86
2023/10/25 06:28:15;;;;;;;15.20;6.83;;;;;;;;;;5012278;28;20737;-85
2023/10/25 06:30:40;;;;;;;11.97;7.10;;;;;;;;;;5012420;28;20354;-85
2023/10/25 06:33:05;;;;;;;17.10;6.77;;;;;;;;;;5019781;28;20318;-86
2023/10/25 06:35:31;;;;;;;14.48;7.65;;;;;;;;;;5021689;28;20358;-86
2023/10/25 06:37:56;;;;;;;12.77;7.30;;;;;;;;;;5014067;28;20487;-88
2023/10/25 06:40:22;;;;;;;12.82;7.13;;;;;;;;;;5013713;28;20292;-85
2023/10/25 06:42:47;;;;;;;18.40;7.65;;;;;;;;;;5013545;28;20113;-85
2023/10/25 06:45:16;;;;;;;18.63;7.97;;;;;;;;;;5014853;28;20033;-85
2023/10/25 06:47:42;;;;;;;14.77;8.77;;;;;;;;;;5012707;28;20156;-85
2023/10/25 06:50:08;;;;;;;16.80;8.05;;;;;;;;;;5014005;28;20116;-87
2023/10/25 06:52:33;;;;;;;15.93;8.07;;;;;;;;;;5014979;28;20018;-87
2023/10/25 06:54:59;;;;;;;17.23;9.07;;;;;;;;;;5014306;28;20548;-87
2023/10/25 06:57:24;;;;;;;22.65;9.50;;;;;;;;;;5013593;28;20026;-87
2023/10/25 06:59:49;;;;;;;16.48;9.60;;;;;;;;;;5010134;28;20662;-87
2023/10/25 07:02:27;;;;;;;21.52;11.15;;;;;;;;;;5012116;28;20017;-86
2023/10/25 07:04:56;;;;;;;18.67;10.30;;;;;;;;;;5013633;28;20439;-86
2023/10/25 07:07:25;;;;;;;22.50;11.63;;;;;;;;;;5012915;28;20032;-88
2023/10/25 07:09:50;;;;;;;20.88;12.02;;;;;;;;;;5013733;28;20121;-89
2023/10/25 07:12:15;;;;;;;25.98;13.25;;;;;;;;;;5012997;28;20536;-89
2023/10/25 07:14:42;;;;;;;26.23;13.93;;;;;;;;;;5013016;28;20048;-92
2023/10/25 07:17:07;;;;;;;30.92;13.77;;;;;;;;;;5010019;28;20669;-87
2023/10/25 07:19:32;;;;;;;28.15;14.05;;;;;;;;;;5012131;28;20021;-86
2023/10/25 07:21:58;;;;;;;23.57;13.73;;;;;;;;;;5017670;28;20042;-86
2023/10/25 07:24:23;;;;;;;28.88;15.13;;;;;;;;;;5013321;28;20278;-86
2023/10/25 07:26:48;;;;;;;30.10;14.70;;;;;;;;;;5010460;28;20041;-85
2023/10/25 07:29:13;;;;;;;27.67;14.20;;;;;;;;;;5011576;28;20292;-89
2023/10/25 07:31:38;;;;;;;27.93;15.40;;;;;;;;;;5011746;28;20259;-88
2023/10/25 07:34:04;;;;;;;26.50;15.10;;;;;;;;;;5012090;28;20275;-85
2023/10/25 07:36:29;;;;;;;28.40;15.67;;;;;;;;;;5013237;28;20022;-86
2023/10/25 07:38:54;;;;;;;32.77;17.50;;;;;;;;;;5012511;28;20271;-90
2023/10/25 07:41:19;;;;;;;28.45;16.38;;;;;;;;;;5015129;28;20280;-86
2023/10/25 07:43:44;;;;;;;30.23;17.47;;;;;;;;;;5032853;28;20082;-84
2023/10/25 07:46:10;;;;;;;31.13;17.77;;;;;;;;;;5014602;28;20401;-85
2023/10/25 07:48:35;;;;;;;28.48;16.83;;;;;;;;;;5011647;28;20391;-85
2023/10/25 07:51:06;;;;;;;28.23;17.40;;;;;;;;;;5014040;28;20037;-86
2023/10/25 07:53:31;;;;;;;30.40;17.60;;;;;;;;;;5012049;28;20036;-87
2023/10/25 07:56:00;;;;;;;32.25;17.98;;;;;;;;;;5016055;28;20025;-86
2023/10/25 07:58:27;;;;;;;33.22;18.02;;;;;;;;;;5015057;28;20036;-86
2023/10/25 08:00:53;;;;;;;30.80;17.50;;;;;;;;;;5013409;28;20477;-85
2023/10/25 08:03:18;;;;;;;31.33;17.20;;;;;;;;;;5016157;28;20040;-84
2023/10/25 08:05:43;;;;;;;32.03;16.90;;;;;;;;;;5018248;28;20298;-85
2023/10/25 08:08:08;;;;;;;28.73;17.33;;;;;;;;;;5013428;28;20376;-85
2023/10/25 08:10:34;;;;;;;35.05;17.33;;;;;;;;;;5004659;28;20374;-85
2023/10/25 08:12:59;;;;;;;34.37;17.37;;;;;;;;;;5010877;28;20037;-86
2023/10/25 08:15:24;;;;;;;27.83;16.52;;;;;;;;;;5013414;28;20662;-85
2023/10/25 08:17:52;;;;;;;33.20;16.90;;;;;;;;;;5015689;28;20029;-85
2023/10/25 08:20:18;;;;;;;24.10;15.27;;;;;;;;;;5014730;28;20294;-87
2023/10/25 08:22:43;;;;;;;25.38;14.80;;;;;;;;;;5013344;28;20476;-86
2023/10/25 08:25:08;;;;;;;24.80;14.73;;;;;;;;;;5011439;28;20045;-86
2023/10/25 08:27:34;;;;;;;24.58;12.98;;;;;;;;;;5013831;28;20281;-85
2023/10/25 08:29:59;;;;;;;21.85;13.95;;;;;;;;;;5016225;28;20108;-86
2023/10/25 08:32:24;;;;;;;22.00;12.67;;;;;;;;;;5011829;28;20388;-85
2023/10/25 08:34:49;;;;;;;18.95;12.50;;;;;;;;;;5010784;28;20749;-86
2023/10/25 08:37:15;;;;;;;18.48;12.00;;;;;;;;;;5013131;28;20411;-85
2023/10/25 08:39:40;;;;;;;21.10;13.17;;;;;;;;;;5010182;28;20033;-85
2023/10/25 08:42:10;;;;;;;18.50;11.55;;;;;;;;;;5010646;28;20329;-86
2023/10/25 08:44:39;;;;;;;15.82;10.95;;;;;;;;;;5012685;28;20009;-85
2023/10/25 08:47:04;;;;;;;20.77;11.55;;;;;;;;;;5012933;28;20472;-86
2023/10/25 08:49:29;;;;;;;20.23;11.90;;;;;;;;;;5011456;28;20042;-87
2023/10/25 08:51:55;;;;;;;22.00;11.27;;;;;;;;;;5020497;28;20025;-86
2023/10/25 08:54:23;;;;;;;18.33;10.38;;;;;;;;;;5015359;28;20025;-85
2023/10/25 08:56:49;;;;;;;16.42;10.35;;;;;;;;;;5028801;28;20379;-87
2023/10/25 08:59:15;;;;;;;13.85;9.98;;;;;;;;;;5012685;28;20025;-88
2023/10/25 09:01:41;;;;;;;14.55;9.45;;;;;;;;;;5011697;28;20032;-89
2023/10/25 09:04:08;;;;;;;16.98;10.30;;;;;;;;;;5012125;28;20014;-88
2023/10/25 09:06:33;;;;;;;13.70;9.82;;;;;;;;;;5011834;28;20072;-88
2023/10/25 09:08:59;;;;;;;16.65;9.63;;;;;;;;;;5011640;28;20034;-86
2023/10/25 09:11:25;;;;;;;16.98;8.63;;;;;;;;;;5018636;28;20439;-86
2023/10/25 09:13:56;;;;;;;14.27;9.55;;;;;;;;;;5010399;28;20542;-86
2023/10/25 09:16:24;;;;;;;12.82;7.65;;;;;;;;;;5012582;28;20018;-87
2023/10/25 09:18:49;;;;;;;14.63;9.68;;;;;;;;;;5011335;28;20026;-87
2023/10/25 09:21:15;;;;;;;10.73;7.93;;;;;;;;;;5011225;28;20403;-88
2023/10/25 09:23:40;;;;;;;15.35;8.68;;;;;;;;;;5010046;28;20633;-88
2023/10/25 09:26:15;;;;;;;12.60;8.10;;;;;;;;;;5009745;28;20018;-85
2023/10/25 09:28:40;;;;;;;12.20;8.70;;;;;;;;;;5007907;28;20283;-88
2023/10/25 09:31:19;;;;;;;19.77;10.40;;;;;;;;;;5012195;28;20014;-86
2023/10/25 09:33:46;;;;;;;12.05;7.93;;;;;;;;;;5019748;28;20022;-88
2023/10/25 09:36:12;;;;;;;12.60;8.98;;;;;;;;;;5021373;28;20479;-88
2023/10/25 09:38:37;;;;;;;18.10;10.95;;;;;;;;;;5009686;28;20022;-86
2023/10/25 09:41:03;;;;;;;14.55;9.05;;;;;;;;;;5010754;28;20033;-88
2023/10/25 09:43:29;;;;;;;14.20;8.77;;;;;;;;;;5011811;28;20056;-87
2023/10/25 09:45:56;;;;;;;16.48;8.73;;;;;;;;;;5010991;28;20022;-88
2023/10/25 09:48:22;;;;;;;14.57;9.45;;;;;;;;;;5010662;28;20030;-86
2023/10/25 09:50:53;;;;;;;12.18;9.10;;;;;;;;;;5011721;28;20527;-86
2023/10/25 09:53:32;;;;;;;12.68;8.07;;;;;;;;;;5011605;28;20022;-87
2023/10/25 09:56:00;;;;;;;12.82;8.35;;;;;;;;;;5012194;28;20112;-87
2023/10/25 09:58:26;;;;;;;15.50;9.25;;;;;;;;;;5011910;28;20121;-87
2023/10/25 10:00:52;;;;;;;15.75;8.63;;;;;;;;;;5011374;28;20036;-90
2023/10/25 10:03:25;;;;;;;20.63;10.90;;;;;;;;;;5025909;28;20054;-92
2023/10/25 10:06:16;;;;;;;15.10;9.40;;;;;;;;;;5016684;28;20020;-90
2023/10/25 10:08:52;;;;;;;17.88;9.13;;;;;;;;;;5001335;28;20064;-89
2023/10/25 10:11:21;;;;;;;17.85;10.70;;;;;;;;;;5035671;28;20053;-90
2023/10/25 10:14:01;;;;;;;22.27;10.88;;;;;;;;;;5035370;28;20029;-87
2023/10/25 10:16:26;;;;;;;15.48;9.35;;;;;;;;;;5022393;28;20022;-86
2023/10/25 10:18:52;;;;;;;17.47;11.27;;;;;;;;;;5015062;28;20495;-87
2023/10/25 10:21:17;;;;;;;21.85;12.93;;;;;;;;;;5013078;28;20746;-87
2023/10/25 10:23:49;;;;;;;19.98;12.77;;;;;;;;;;5013383;28;20060;-88
2023/10/25 10:26:35;;;;;;;17.58;12.05;;;;;;;;;;5013730;28;20097;-88
2023/10/25 10:29:00;;;;;;;23.92;11.27;;;;;;;;;;5013725;28;20038;-86
2023/10/25 10:31:25;;;;;;;18.53;12.10;;;;;;;;;;5013887;28;20018;-86
2023/10/25 10:33:50;;;;;;;20.80;12.53;;;;;;;;;;5015404;28;20270;-89
2023/10/25 10:36:26;;;;;;;24.87;11.67;;;;;;;;;;5013887;28;20765;-90
2023/10/25 10:39:11;;;;;;;16.75;12.40;;;;;;;;;;5012906;28;20312;-88
2023/10/25 10:41:37;;;;;;;17.20;11.52;;;;;;;;;;5033646;28;20356;-88
2023/10/25 10:44:03;;;;;;;18.73;11.75;;;;;;;;;;5035005;28;20076;-88
2023/10/25 10:46:30;;;;;;;14.32;9.48;;;;;;;;;;5015234;28;20029;-89
2023/10/25 10:48:59;;;;;;;15.25;10.48;;;;;;;;;;5012407;28;20037;-88
2023/10/25 10:51:25;;;;;;;16.15;10.32;;;;;;;;;;4999545;28;20030;-88
2023/10/25 10:53:51;;;;;;;20.50;12.85;;;;;;;;;;4997304;28;20121;-87
2023/10/25 10:56:16;;;;;;;18.67;12.57;;;;;;;;;;5029880;28;20113;-87
2023/10/25 10:58:41;;;;;;;22.17;13.97;;;;;;;;;;5013014;28;20279;-86
2023/10/25 11:01:06;;;;;;;26.50;15.63;;;;;;;;;;5028531;28;20369;-86
2023/10/25 11:03:32;;;;;;;25.10;15.60;;;;;;;;;;5019857;28;20795;-86
2023/10/25 11:05:57;;;;;;;20.38;15.20;;;;;;;;;;5014873;28;20018;-87
2023/10/25 11:08:23;;;;;;;20.48;14.38;;;;;;;;;;5012997;28;20184;-84
2023/10/25 11:10:49;;;;;;;22.73;14.00;;;;;;;;;;5013648;28;20026;-86
2023/10/25 11:13:15;;;;;;;22.25;15.02;;;;;;;;;;5018834;28;20028;-86
2023/10/25 11:15:40;;;;;;;20.65;14.43;;;;;;;;;;5017226;28;20495;-85
2023/10/25 11:18:08;;;;;;;24.97;14.50;;;;;;;;;;5013475;28;20022;-86
2023/10/25 11:20:34;;;;;;;21.65;14.23;;;;;;;;;;5012424;28;20278;-87
2023/10/25 11:22:59;;;;;;;20.23;15.25;;;;;;;;;;5016119;28;20021;-87
2023/10/25 11:25:27;;;;;;;21.83;14.10;;;;;;;;;;5018726;28;20034;-87
2023/10/25 11:27:55;;;;;;;17.77;11.07;;;;;;;;;;5013919;28;20278;-87
2023/10/25 11:30:21;;;;;;;15.45;11.23;;;;;;;;;;5012408;28;20053;-87
2023/10/25 11:32:47;;;;;;;15.95;11.13;;;;;;;;;;5014146;28;20168;-86
2023/10/25 11:35:20;;;;;;;16.50;10.88;;;;;;;;;;5013712;28;20480;-85
2023/10/25 11:37:48;;;;;;;15.52;10.20;;;;;;;;;;5011585;28;20384;-85
2023/10/25 11:40:14;;;;;;;17.25;11.35;;;;;;;;;;5011571;28;20021;-86
2023/10/25 11:42:40;;;;;;;18.52;11.10;;;;;;;;;;5012831;28;20487;-90
2023/10/25 11:45:06;;;;;;;22.48;14.45;;;;;;;;;;5011173;28;20053;-87
2023/10/25 11:47:34;;;;;;;18.05;12.90;;;;;;;;;;5014520;28;20013;-88
2023/10/25 11:50:00;;;;;;;16.75;13.35;;;;;;;;;;5013216;28;20018;-86
2023/10/25 11:52:26;;;;;;;21.00;12.20;;;;;;;;;;5013784;28;20144;-86
2023/10/25 11:54:57;;;;;;;11.68;8.40;;;;;;;;;;5012420;28;20108;-86
2023/10/25 11:57:23;;;;;;;10.85;7.45;;;;;;;;;;5028380;28;20079;-86
2023/10/25 11:59:49;;;;;;;11.32;7.10;;;;;;;;;;5017420;28;20084;-86
2023/10/25 12:02:14;;;;;;;10.90;6.82;;;;;;;;;;5031720;28;20031;-86
2023/10/25 12:04:39;;;;;;;10.15;6.65;;;;;;;;;;5032159;28;20021;-86
2023/10/25 12:07:04;;;;;;;7.47;6.10;;;;;;;;;;5030823;28;20534;-87
2023/10/25 12:09:29;;;;;;;11.87;6.37;;;;;;;;;;5032696;28;20286;-87
2023/10/25 12:11:55;;;;;;;10.80;6.67;;;;;;;;;;5030071;28;20354;-87
2023/10/25 12:14:20;;;;;;;12.00;6.13;;;;;;;;;;5032767;28;20353;-87
2023/10/25 12:16:45;;;;;;;7.63;5.30;;;;;;;;;;5033553;28;20025;-87
2023/10/25 12:19:10;;;;;;;6.37;4.67;;;;;;;;;;5032250;28;20423;-87
2023/10/25 12:21:36;;;;;;;8.33;4.87;;;;;;;;;;5033325;28;20597;-87
2023/10/25 12:24:01;;;;;;;7.67;4.30;;;;;;;;;;5033450;28;20752;-87
2023/10/25 12:26:26;;;;;;;7.87;4.63;;;;;;;;;;5033433;28;20760;-87
2023/10/25 12:28:51;;;;;;;7.53;4.63;;;;;;;;;;5012984;28;20295;-87
2023/10/25 12:31:16;;;;;;;8.57;5.93;;;;;;;;;;5012880;28;20243;-87
2023/10/25 12:33:42;;;;;;;12.10;5.88;;;;;;;;;;5011527;28;20275;-87
2023/10/25 12:36:07;;;;;;;8.67;6.30;;;;;;;;;;5013302;28;20314;-87
2023/10/25 12:38:32;;;;;;;8.80;5.60;;;;;;;;;;5013336;28;20346;-87
2023/10/25 12:40:57;;;;;;;12.60;8.23;;;;;;;;;;5013216;28;20346;-87
2023/10/25 12:43:23;;;;;;;12.03;6.50;;;;;;;;;;5012991;28;20259;-87
2023/10/25 12:45:48;;;;;;;9.97;6.10;;;;;;;;;;5013111;28;20290;-86
2023/10/25 12:48:13;;;;;;;10.68;6.63;;;;;;;;;;5012313;28;20307;-86
2023/10/25 12:50:38;;;;;;;11.47;5.60;;;;;;;;;;5012931;28;20033;-87
2023/10/25 12:53:03;;;;;;;15.23;5.55;;;;;;;;;;5012934;28;20314;-86
2023/10/25 12:55:29;;;;;;;8.73;5.00;;;;;;;;;;5012930;28;20033;-87
2023/10/25 12:57:54;;;;;;;10.80;5.27;;;;;;;;;;5012854;28;20279;-87
2023/10/25 13:00:19;;;;;;;8.93;4.90;;;;;;;;;;5012853;28;20283;-86
2023/10/25 13:02:44;;;;;;;7.88;4.72;;;;;;;;;;5025888;28;20313;-87
2023/10/25 13:05:10;;;;;;;9.37;5.20;;;;;;;;;;5032415;28;20022;-87
2023/10/25 13:07:35;;;;;;;8.50;4.30;;;;;;;;;;5032554;28;20270;-86
2023/10/25 13:10:00;;;;;;;11.27;4.88;;;;;;;;;;5032410;28;20075;-86
2023/10/25 13:12:26;;;;;;;6.20;4.53;;;;;;;;;;5032344;28;20025;-86
2023/10/25 13:14:51;;;;;;;10.30;4.63;;;;;;;;;;5032269;28;20263;-86
2023/10/25 13:17:16;;;;;;;7.50;4.40;;;;;;;;;;5029409;28;20031;-87
2023/10/25 13:19:42;;;;;;;7.25;4.18;;;;;;;;;;5031204;28;20255;-86
2023/10/25 13:22:07;;;;;;;10.98;4.18;;;;;;;;;;5032423;28;20378;-87
2023/10/25 13:24:32;;;;;;;9.65;4.50;;;;;;;;;;5032289;28;20471;-86
2023/10/25 13:26:58;;;;;;;7.53;4.38;;;;;;;;;;5029361;28;20052;-86
2023/10/25 13:29:23;;;;;;;9.18;4.10;;;;;;;;;;5032105;28;20545;-87
2023/10/25 13:31:48;;;;;;;7.67;4.53;;;;;;;;;;5032266;28;20021;-87
2023/10/25 13:34:13;;;;;;;6.05;4.00;;;;;;;;;;5031955;28;20262;-87
2023/10/25 13:36:38;;;;;;;7.47;4.23;;;;;;;;;;5032243;28;20096;-86
2023/10/25 13:39:04;;;;;;;6.93;4.10;;;;;;;;;;5032177;28;20258;-87
2023/10/25 13:41:29;;;;;;;4.68;3.63;;;;;;;;;;5029833;28;20467;-87
2023/10/25 13:43:54;;;;;;;8.60;3.45;;;;;;;;;;5023060;28;20026;-87
2023/10/25 13:46:19;;;;;;;6.93;4.17;;;;;;;;;;5012119;28;20049;-87
2023/10/25 13:48:45;;;;;;;6.90;3.73;;;;;;;;;;5012205;28;20295;-86
2023/10/25 13:51:10;;;;;;;18.00;4.80;;;;;;;;;;5012228;28;20251;-86
2023/10/25 13:53:38;;;;;;;8.03;4.37;;;;;;;;;;5012010;28;20029;-86
2023/10/25 13:56:03;;;;;;;5.97;3.78;;;;;;;;;;5010910;28;20637;-86
2023/10/25 13:58:29;;;;;;;9.23;4.00;;;;;;;;;;5024311;28;20025;-86
2023/10/25 14:00:54;;;;;;;6.18;3.67;;;;;;;;;;5031845;28;20111;-86
2023/10/25 14:03:20;;;;;;;7.50;3.40;;;;;;;;;;5031769;28;20021;-86
2023/10/25 14:05:45;;;;;;;7.70;5.03;;;;;;;;;;5031718;28;20104;-87
2023/10/25 14:08:11;;;;;;;8.57;4.63;;;;;;;;;;5031633;28;20064;-87
2023/10/25 14:10:46;;;;;;;12.13;4.43;;;;;;;;;;5031837;28;20052;-86
2023/10/25 14:13:11;;;;;;;9.10;4.40;;;;;;;;;;5017485;28;20056;-87
2023/10/25 14:15:37;;;;;;;9.75;4.70;;;;;;;;;;5010768;28;20469;-87
2023/10/25 14:18:02;;;;;;;9.43;4.32;;;;;;;;;;5011903;28;20349;-86
2023/10/25 14:20:28;;;;;;;6.40;3.72;;;;;;;;;;5012244;28;20026;-86
2023/10/25 14:22:53;;;;;;;6.60;3.70;;;;;;;;;;5010509;28;20041;-87
2023/10/25 14:25:19;;;;;;;6.90;3.75;;;;;;;;;;5023209;28;20025;-87